createdAt,value
2018-07-26T00:01:34.471Z,18.50
2018-07-26T00:04:02.928Z,18.50
2018-07-26T00:06:31.364Z,18.50
2018-07-26T00:08:59.776Z,18.40
2018-07-26T00:11:28.221Z,18.40
2018-07-26T00:13:56.654Z,18.30
2018-07-26T00:16:25.069Z,18.20
2018-07-26T00:18:53.517Z,18.20
2018-07-26T00:21:21.943Z,18.30
2018-07-26T00:23:50.382Z,18.20
2018-07-26T00:26:18.833Z,18.20
2018-07-26T00:28:47.229Z,18.20
2018-07-26T00:31:15.650Z,18.20
2018-07-26T00:33:44.115Z,18.10
2018-07-26T00:36:12.513Z,18.10
2018-07-26T00:38:40.948Z,18.00
2018-07-26T00:41:09.535Z,18.00
2018-07-26T00:43:37.948Z,18.00
2018-07-26T00:46:06.398Z,18.00
2018-07-26T00:48:34.852Z,17.90
2018-07-26T00:51:03.264Z,17.90
2018-07-26T00:53:31.677Z,17.90
2018-07-26T00:56:00.119Z,17.90
2018-07-26T00:58:28.520Z,17.80
2018-07-26T01:00:56.954Z,17.80
2018-07-26T01:03:25.402Z,17.80
2018-07-26T01:05:53.826Z,17.70
2018-07-26T01:08:22.238Z,17.80
2018-07-26T01:10:50.673Z,17.70
2018-07-26T01:13:19.125Z,17.70
2018-07-26T01:15:47.544Z,17.70
2018-07-26T01:18:15.997Z,17.60
2018-07-26T01:20:44.404Z,17.60
2018-07-26T01:23:12.832Z,17.50
2018-07-26T01:25:41.311Z,17.50
2018-07-26T01:28:09.733Z,17.40
2018-07-26T01:30:38.138Z,17.40
2018-07-26T01:33:06.925Z,17.40
2018-07-26T01:35:35.429Z,17.40
2018-07-26T01:38:03.876Z,17.40
2018-07-26T01:40:32.338Z,17.30
2018-07-26T01:43:12.057Z,17.20
2018-07-26T01:45:40.526Z,17.30
2018-07-26T01:48:08.935Z,17.20
2018-07-26T01:50:37.359Z,17.20
2018-07-26T01:53:05.834Z,17.20
2018-07-26T01:55:34.267Z,17.20
2018-07-26T02:00:30.853Z,17.10
2018-07-26T02:02:59.278Z,17.10
2018-07-26T02:05:27.703Z,17.00
2018-07-26T02:07:56.153Z,17.10
2018-07-26T02:10:24.596Z,17.00
2018-07-26T02:12:53.049Z,17.00
2018-07-26T02:15:21.549Z,17.00
2018-07-26T02:17:49.960Z,17.00
2018-07-26T02:20:18.386Z,16.90
2018-07-26T02:22:46.838Z,16.90
2018-07-26T02:25:15.290Z,16.90
2018-07-26T02:27:43.689Z,16.90
2018-07-26T02:30:12.135Z,16.90
2018-07-26T02:32:40.565Z,16.80
2018-07-26T02:35:09.002Z,16.80
2018-07-26T02:37:37.423Z,16.80
2018-07-26T02:40:06.285Z,16.80
2018-07-26T02:42:34.725Z,16.80
2018-07-26T02:45:03.207Z,16.70
2018-07-26T02:47:31.628Z,16.70
2018-07-26T02:50:00.014Z,16.70
2018-07-26T02:52:28.448Z,16.70
2018-07-26T02:54:56.853Z,16.70
2018-07-26T02:57:25.285Z,16.70
2018-07-26T02:59:53.731Z,16.70
2018-07-26T03:02:22.144Z,16.60
2018-07-26T03:04:50.562Z,16.60
2018-07-26T03:07:19.374Z,16.60
2018-07-26T03:09:47.749Z,16.60
2018-07-26T03:12:16.187Z,16.50
2018-07-26T03:14:45.163Z,16.50
2018-07-26T03:17:15.261Z,16.50
2018-07-26T03:19:44.781Z,16.50
2018-07-26T03:22:13.219Z,16.50
2018-07-26T03:24:41.654Z,16.40
2018-07-26T03:27:10.090Z,16.40
2018-07-26T03:29:38.497Z,16.40
2018-07-26T03:32:07.565Z,16.30
2018-07-26T03:34:35.989Z,16.30
2018-07-26T03:37:04.510Z,16.30
2018-07-26T03:39:32.938Z,16.30
2018-07-26T03:44:29.541Z,16.20
2018-07-26T03:46:58.672Z,16.20
2018-07-26T03:49:27.122Z,16.20
2018-07-26T03:51:55.594Z,16.20
2018-07-26T03:54:24.015Z,16.20
2018-07-26T03:56:52.464Z,16.10
2018-07-26T03:59:20.910Z,16.10
2018-07-26T04:01:49.327Z,16.10
2018-07-26T04:04:17.773Z,16.10
2018-07-26T04:06:46.194Z,16.10
2018-07-26T04:09:15.496Z,16.00
2018-07-26T04:11:45.034Z,16.00
2018-07-26T04:14:13.467Z,16.00
2018-07-26T04:16:41.928Z,16.00
2018-07-26T04:19:11.287Z,16.00
2018-07-26T04:21:40.290Z,16.00
2018-07-26T04:26:37.363Z,16.00
2018-07-26T04:29:06.104Z,16.00
2018-07-26T04:31:34.701Z,16.10
2018-07-26T04:34:03.141Z,16.10
2018-07-26T04:36:31.579Z,16.10
2018-07-26T04:39:00.001Z,16.10
2018-07-26T04:41:29.466Z,16.10
2018-07-26T04:43:57.898Z,16.10
2018-07-26T04:46:26.297Z,16.20
2018-07-26T04:48:55.030Z,16.20
2018-07-26T04:51:23.417Z,16.20
2018-07-26T04:53:51.882Z,16.20
2018-07-26T04:56:20.309Z,16.30
2018-07-26T04:58:48.733Z,16.30
2018-07-26T05:01:17.282Z,16.40
2018-07-26T05:03:45.726Z,16.50
2018-07-26T05:06:14.170Z,16.60
2018-07-26T05:08:42.626Z,16.60
2018-07-26T05:11:11.075Z,16.70
2018-07-26T05:13:39.514Z,16.80
2018-07-26T05:18:36.118Z,16.90
2018-07-26T05:21:04.509Z,16.90
2018-07-26T05:23:32.940Z,17.00
2018-07-26T05:26:01.378Z,17.00
2018-07-26T05:28:29.772Z,17.10
2018-07-26T05:30:58.194Z,17.20
2018-07-26T05:33:26.628Z,17.10
2018-07-26T05:35:55.752Z,17.20
2018-07-26T05:38:24.408Z,17.20
2018-07-26T05:40:52.858Z,17.30
2018-07-26T05:43:21.847Z,17.40
2018-07-26T05:45:50.290Z,17.50
2018-07-26T05:48:18.745Z,17.60
2018-07-26T05:50:47.224Z,17.70
2018-07-26T05:53:15.719Z,17.90
2018-07-26T05:55:44.104Z,18.00
2018-07-26T05:58:12.522Z,18.10
2018-07-26T06:00:40.951Z,18.30
2018-07-26T06:03:09.396Z,18.40
2018-07-26T06:05:37.848Z,18.60
2018-07-26T06:08:06.290Z,18.70
2018-07-26T06:10:34.721Z,18.70
2018-07-26T06:13:03.151Z,18.80
2018-07-26T06:15:31.596Z,18.90
2018-07-26T06:18:00.035Z,19.00
2018-07-26T06:20:28.492Z,19.00
2018-07-26T06:22:56.906Z,19.10
2018-07-26T06:25:25.362Z,19.20
2018-07-26T06:27:53.807Z,19.40
2018-07-26T06:30:22.210Z,19.50
2018-07-26T06:32:50.639Z,19.60
2018-07-26T06:35:19.052Z,19.70
2018-07-26T06:37:47.464Z,19.70
2018-07-26T06:40:15.912Z,19.80
2018-07-26T06:42:44.359Z,19.90
2018-07-26T06:45:12.788Z,19.90
2018-07-26T06:47:41.290Z,20.00
2018-07-26T06:50:11.584Z,20.10
2018-07-26T06:52:40.167Z,20.10
2018-07-26T06:55:08.778Z,20.20
2018-07-26T06:57:37.205Z,20.20
2018-07-26T07:00:07.485Z,20.30
2018-07-26T07:02:35.918Z,20.40
2018-07-26T07:05:04.533Z,20.50
2018-07-26T07:07:32.926Z,20.60
2018-07-26T07:10:01.383Z,20.70
2018-07-26T07:12:29.806Z,20.70
2018-07-26T07:14:58.533Z,20.90
2018-07-26T07:17:26.953Z,20.90
2018-07-26T07:19:55.360Z,21.10
2018-07-26T07:22:23.793Z,21.20
2018-07-26T07:24:52.243Z,21.30
2018-07-26T07:27:20.662Z,21.30
2018-07-26T07:29:49.077Z,21.50
2018-07-26T07:32:17.562Z,21.60
2018-07-26T07:34:45.986Z,21.80
2018-07-26T07:37:14.400Z,22.00
2018-07-26T07:39:42.844Z,22.60
2018-07-26T07:42:11.265Z,23.20
2018-07-26T07:44:39.664Z,24.10
2018-07-26T07:47:08.133Z,25.00
2018-07-26T07:49:36.552Z,25.70
2018-07-26T07:52:07.666Z,26.90
2018-07-26T07:54:36.270Z,27.50
2018-07-26T07:57:04.943Z,27.40
2018-07-26T07:59:33.453Z,29.00
2018-07-26T08:02:01.934Z,30.10
2018-07-26T08:04:30.362Z,30.60
2018-07-26T08:06:58.796Z,31.30
2018-07-26T08:09:27.232Z,32.30
2018-07-26T08:11:56.255Z,33.30
2018-07-26T08:14:24.686Z,33.80
2018-07-26T08:16:53.142Z,33.20
2018-07-26T08:19:21.564Z,34.00
2018-07-26T08:21:50.006Z,34.00
2018-07-26T08:24:20.388Z,35.00
2018-07-26T08:26:48.818Z,35.80
2018-07-26T08:29:17.234Z,35.50
2018-07-26T08:31:45.746Z,35.70
2018-07-26T08:34:14.189Z,36.10
2018-07-26T08:36:42.666Z,36.00
2018-07-26T08:39:12.639Z,36.40
2018-07-26T08:41:41.319Z,36.70
2018-07-26T08:44:09.804Z,36.40
2018-07-26T08:46:38.255Z,36.30
2018-07-26T08:49:07.071Z,35.80
2018-07-26T08:51:35.503Z,35.80
2018-07-26T08:54:03.953Z,36.50
2018-07-26T08:56:32.364Z,37.00
2018-07-26T08:59:00.748Z,37.00
2018-07-26T09:01:29.189Z,37.00
2018-07-26T09:03:57.628Z,36.80
2018-07-26T09:06:26.051Z,37.00
2018-07-26T09:08:54.500Z,37.20
2018-07-26T09:11:22.916Z,37.30
2018-07-26T09:13:51.361Z,37.50
2018-07-26T09:16:19.913Z,37.90
2018-07-26T09:18:48.324Z,37.70
2018-07-26T09:21:16.832Z,36.90
2018-07-26T09:23:45.284Z,37.10
2018-07-26T09:26:13.727Z,37.10
2018-07-26T09:28:42.109Z,37.40
2018-07-26T09:31:10.558Z,36.60
2018-07-26T09:33:39.685Z,36.50
2018-07-26T09:36:08.901Z,35.70
2018-07-26T09:38:37.351Z,34.80
2018-07-26T09:41:05.832Z,36.00
2018-07-26T09:43:34.246Z,36.30
2018-07-26T09:46:02.691Z,35.40
2018-07-26T09:48:31.118Z,36.00
2018-07-26T09:50:59.568Z,35.80
2018-07-26T09:53:28.011Z,36.30
2018-07-26T09:55:56.444Z,35.60
2018-07-26T09:58:24.858Z,35.10
2018-07-26T10:00:58.672Z,35.60
2018-07-26T10:03:27.083Z,36.10
2018-07-26T10:05:55.650Z,36.00
2018-07-26T10:08:24.129Z,35.80
2018-07-26T10:10:52.534Z,35.20
2018-07-26T10:13:20.970Z,34.00
2018-07-26T10:18:17.530Z,35.60
2018-07-26T10:20:46.015Z,36.20
2018-07-26T10:23:14.478Z,36.00
2018-07-26T10:25:42.961Z,34.60
2018-07-26T10:28:11.418Z,34.50
2018-07-26T10:30:39.886Z,35.00
2018-07-26T10:33:08.335Z,34.30
2018-07-26T10:35:36.785Z,35.00
2018-07-26T10:38:05.301Z,34.70
2018-07-26T10:40:33.750Z,35.20
2018-07-26T10:43:02.224Z,35.30
2018-07-26T10:45:30.680Z,34.90
2018-07-26T10:47:59.155Z,34.70
2018-07-26T10:50:27.621Z,34.70
2018-07-26T10:52:56.753Z,34.50
2018-07-26T10:55:25.177Z,34.40
2018-07-26T10:57:53.770Z,34.10
2018-07-26T11:00:22.309Z,33.80
2018-07-26T11:02:50.737Z,33.30
2018-07-26T11:05:19.252Z,34.10
2018-07-26T11:07:47.727Z,33.70
2018-07-26T11:10:16.124Z,33.80
2018-07-26T11:12:44.641Z,33.30
2018-07-26T11:15:23.267Z,34.10
2018-07-26T11:17:51.728Z,34.60
2018-07-26T11:20:20.298Z,34.40
2018-07-26T11:22:48.772Z,34.90
2018-07-26T11:25:17.211Z,34.30
2018-07-26T11:27:45.639Z,34.70
2018-07-26T11:30:14.210Z,34.90
2018-07-26T11:32:42.687Z,34.90
2018-07-26T11:35:12.009Z,34.90
2018-07-26T11:37:40.487Z,34.50
2018-07-26T11:40:08.966Z,33.60
2018-07-26T11:42:37.389Z,33.50
2018-07-26T11:45:07.178Z,33.20
2018-07-26T11:47:35.859Z,33.40
2018-07-26T11:50:05.347Z,32.60
2018-07-26T11:52:33.923Z,32.70
2018-07-26T11:55:02.401Z,32.40
2018-07-26T11:57:30.877Z,32.80
2018-07-26T11:59:59.460Z,32.70
2018-07-26T12:02:28.760Z,33.10
2018-07-26T12:04:57.162Z,31.90
2018-07-26T12:07:25.612Z,31.90
2018-07-26T12:09:54.039Z,31.90
2018-07-26T12:12:22.507Z,32.30
2018-07-26T12:14:50.945Z,32.10
2018-07-26T12:17:19.372Z,32.40
2018-07-26T12:19:47.877Z,32.70
2018-07-26T12:22:16.325Z,32.30
2018-07-26T12:27:12.946Z,33.20
2018-07-26T12:29:41.391Z,33.60
2018-07-26T12:32:09.863Z,33.40
2018-07-26T12:34:38.347Z,33.50
2018-07-26T12:37:06.879Z,33.30
2018-07-26T12:39:35.330Z,33.40
2018-07-26T12:42:04.066Z,33.20
2018-07-26T12:44:32.505Z,32.80
2018-07-26T12:47:00.960Z,33.10
2018-07-26T12:49:29.476Z,32.90
2018-07-26T12:51:58.236Z,32.90
2018-07-26T12:54:27.062Z,32.90
2018-07-26T12:56:55.476Z,32.60
2018-07-26T12:59:23.938Z,32.60
2018-07-26T13:01:52.435Z,32.10
2018-07-26T13:04:20.942Z,32.50
2018-07-26T13:06:49.402Z,33.10
2018-07-26T13:09:17.824Z,32.60
2018-07-26T13:11:46.336Z,32.90
2018-07-26T13:14:14.819Z,32.60
2018-07-26T13:16:45.397Z,33.20
2018-07-26T13:19:13.906Z,33.80
2018-07-26T13:21:42.458Z,33.10
2018-07-26T13:24:10.889Z,33.20
2018-07-26T13:26:39.325Z,33.40
2018-07-26T13:29:07.779Z,33.80
2018-07-26T13:31:36.326Z,33.80
2018-07-26T13:34:04.815Z,33.40
2018-07-26T13:36:33.319Z,33.00
2018-07-26T13:39:01.836Z,33.80
2018-07-26T13:41:30.340Z,34.20
2018-07-26T13:43:58.779Z,33.90
2018-07-26T13:46:27.243Z,34.20
2018-07-26T13:48:55.766Z,34.60
2018-07-26T13:51:24.195Z,34.30
2018-07-26T13:53:52.630Z,34.50
2018-07-26T13:56:21.082Z,34.40
2018-07-26T13:58:49.522Z,34.30
2018-07-26T14:01:18.166Z,33.90
2018-07-26T14:03:46.654Z,33.80
2018-07-26T14:06:15.122Z,33.30
2018-07-26T14:08:43.550Z,33.20
2018-07-26T14:11:11.995Z,32.80
2018-07-26T14:13:40.412Z,33.00
2018-07-26T14:16:08.935Z,32.90
2018-07-26T14:18:37.340Z,33.10
2018-07-26T14:21:05.787Z,33.00
2018-07-26T14:23:38.274Z,32.80
2018-07-26T14:26:08.348Z,32.70
2018-07-26T14:28:36.810Z,32.80
2018-07-26T14:31:05.567Z,32.40
2018-07-26T14:33:34.040Z,32.60
2018-07-26T14:36:02.495Z,32.60
2018-07-26T14:38:30.958Z,31.70
2018-07-26T14:40:59.503Z,32.10
2018-07-26T14:43:27.925Z,31.90
2018-07-26T14:45:56.408Z,31.90
2018-07-26T14:50:53.005Z,32.60
2018-07-26T14:53:21.510Z,31.90
2018-07-26T14:55:49.936Z,31.50
2018-07-26T14:58:18.507Z,31.60
2018-07-26T15:00:47.003Z,31.70
2018-07-26T15:03:15.430Z,32.00
2018-07-26T15:05:43.879Z,32.00
2018-07-26T15:08:12.346Z,31.70
2018-07-26T15:10:40.862Z,31.70
2018-07-26T15:13:09.343Z,31.00
2018-07-26T15:15:37.800Z,31.00
2018-07-26T15:18:06.386Z,30.70
2018-07-26T15:20:34.874Z,30.80
2018-07-26T15:23:03.399Z,31.00
2018-07-26T15:25:31.885Z,30.60
2018-07-26T15:28:00.486Z,30.00
2018-07-26T15:30:28.978Z,30.20
2018-07-26T15:32:57.521Z,30.00
2018-07-26T15:35:25.909Z,29.70
2018-07-26T15:37:54.341Z,29.70
2018-07-26T15:40:22.773Z,29.50
2018-07-26T15:42:51.335Z,29.60
2018-07-26T15:45:19.798Z,29.20
2018-07-26T15:47:48.228Z,29.30
2018-07-26T15:52:44.804Z,29.10
2018-07-26T15:55:13.249Z,29.20
2018-07-26T15:57:41.672Z,29.10
2018-07-26T16:00:11.567Z,28.70
2018-07-26T16:02:40.130Z,28.80
2018-07-26T16:05:08.867Z,28.70
2018-07-26T16:07:37.922Z,28.60
2018-07-26T16:10:06.997Z,28.70
2018-07-26T16:12:35.422Z,28.30
2018-07-26T16:15:05.086Z,28.20
2018-07-26T16:17:33.571Z,28.30
2018-07-26T16:20:01.926Z,28.40
2018-07-26T16:22:30.398Z,28.40
2018-07-26T16:24:58.822Z,28.50
2018-07-26T16:27:27.235Z,28.50
2018-07-26T16:29:55.672Z,28.30
2018-07-26T16:32:24.108Z,28.00
2018-07-26T16:34:52.559Z,27.80
2018-07-26T16:37:21.000Z,28.10
2018-07-26T16:39:49.418Z,27.90
2018-07-26T16:42:17.891Z,27.70
2018-07-26T16:44:46.326Z,27.70
2018-07-26T16:47:14.823Z,27.80
2018-07-26T16:49:43.261Z,27.90
2018-07-26T16:52:12.293Z,27.80
2018-07-26T16:54:40.731Z,27.50
2018-07-26T16:57:09.182Z,27.60
2018-07-26T16:59:37.628Z,27.50
2018-07-26T17:02:06.070Z,27.20
2018-07-26T17:04:34.512Z,27.20
2018-07-26T17:07:02.950Z,27.20
2018-07-26T17:09:31.409Z,27.10
2018-07-26T17:11:59.832Z,27.20
2018-07-26T17:14:28.285Z,27.10
2018-07-26T17:16:56.733Z,27.00
2018-07-26T17:19:25.182Z,26.80
2018-07-26T17:21:53.632Z,27.00
2018-07-26T17:24:22.071Z,27.00
2018-07-26T17:26:50.493Z,26.90
2018-07-26T17:29:18.993Z,26.80
2018-07-26T17:31:47.429Z,26.80
2018-07-26T17:34:15.892Z,26.80
2018-07-26T17:36:44.334Z,26.70
2018-07-26T17:39:13.125Z,26.50
2018-07-26T17:41:41.542Z,26.60
2018-07-26T17:44:09.981Z,26.40
2018-07-26T17:46:38.401Z,26.40
2018-07-26T17:49:06.841Z,26.40
2018-07-26T17:51:35.318Z,26.30
2018-07-26T17:54:03.738Z,26.20
2018-07-26T17:56:32.156Z,26.10
2018-07-26T17:59:00.647Z,26.10
2018-07-26T18:01:29.054Z,26.00
2018-07-26T18:03:57.514Z,25.90
2018-07-26T18:06:25.949Z,25.90
2018-07-26T18:08:54.498Z,25.90
2018-07-26T18:11:22.896Z,25.90
2018-07-26T18:13:51.357Z,25.80
2018-07-26T18:16:19.782Z,25.90
2018-07-26T18:18:48.196Z,25.80
2018-07-26T18:21:16.675Z,25.70
2018-07-26T18:23:45.118Z,25.60
2018-07-26T18:26:13.623Z,25.60
2018-07-26T18:28:42.165Z,25.60
2018-07-26T18:31:10.598Z,25.60
2018-07-26T18:33:39.101Z,25.50
2018-07-26T18:36:07.547Z,25.30
2018-07-26T18:38:35.953Z,25.30
2018-07-26T18:41:04.348Z,25.20
2018-07-26T18:43:32.949Z,25.00
2018-07-26T18:46:01.270Z,25.00
2018-07-26T18:48:29.738Z,25.00
2018-07-26T18:50:58.195Z,24.90
2018-07-26T18:53:26.636Z,24.90
2018-07-26T18:55:55.256Z,24.80
2018-07-26T18:58:23.713Z,24.70
2018-07-26T19:00:52.139Z,24.70
2018-07-26T19:03:20.579Z,24.70
2018-07-26T19:08:17.163Z,24.60
2018-07-26T19:10:45.590Z,24.50
2018-07-26T19:13:14.021Z,24.50
2018-07-26T19:15:44.538Z,24.40
2018-07-26T19:18:13.086Z,24.30
2018-07-26T19:20:41.550Z,24.30
2018-07-26T19:23:09.964Z,24.20
2018-07-26T19:25:38.406Z,24.10
2018-07-26T19:28:06.842Z,24.00
2018-07-26T19:30:35.360Z,24.00
2018-07-26T19:33:03.834Z,23.90
2018-07-26T19:35:32.294Z,23.80
2018-07-26T19:38:00.693Z,23.70
2018-07-26T19:40:29.136Z,23.60
2018-07-26T19:42:57.566Z,23.50
2018-07-26T19:45:25.995Z,23.40
2018-07-26T19:47:54.464Z,23.40
2018-07-26T19:50:22.943Z,23.30
2018-07-26T19:52:51.410Z,23.20
2018-07-26T19:55:19.906Z,23.20
2018-07-26T19:57:48.332Z,23.10
2018-07-26T20:00:16.744Z,23.00
2018-07-26T20:02:45.210Z,22.90
2018-07-26T20:05:13.645Z,22.80
2018-07-26T20:07:42.110Z,22.80
2018-07-26T20:10:12.546Z,22.70
2018-07-26T20:12:41.313Z,22.60
2018-07-26T20:17:37.914Z,22.50
2018-07-26T20:20:08.704Z,22.40
2018-07-26T20:22:37.199Z,22.30
2018-07-26T20:25:05.838Z,22.30
2018-07-26T20:27:34.554Z,22.20
2018-07-26T20:30:03.218Z,22.10
2018-07-26T20:32:31.660Z,22.00
2018-07-26T20:35:00.078Z,22.00
2018-07-26T20:37:28.548Z,21.90
2018-07-26T20:39:56.985Z,21.90
2018-07-26T20:42:26.199Z,21.80
2018-07-26T20:44:54.762Z,21.80
2018-07-26T20:49:51.524Z,21.60
2018-07-26T20:52:19.973Z,21.50
2018-07-26T20:54:48.409Z,21.50
2018-07-26T20:57:16.876Z,21.40
2018-07-26T20:59:45.507Z,21.40
2018-07-26T21:02:14.487Z,21.30
2018-07-26T21:04:42.862Z,21.30
2018-07-26T21:07:11.296Z,21.20
2018-07-26T21:09:39.709Z,21.10
2018-07-26T21:12:08.137Z,21.10
2018-07-26T21:14:36.736Z,21.10
2018-07-26T21:17:05.573Z,21.00
2018-07-26T21:19:34.012Z,20.90
2018-07-26T21:22:02.486Z,20.90
2018-07-26T21:24:30.892Z,20.90
2018-07-26T21:26:59.313Z,20.80
2018-07-26T21:29:28.419Z,20.70
2018-07-26T21:31:57.018Z,20.70
2018-07-26T21:34:25.595Z,20.60
2018-07-26T21:36:54.050Z,20.60
2018-07-26T21:39:22.475Z,20.60
2018-07-26T21:41:50.861Z,20.50
2018-07-26T21:44:19.366Z,20.40
2018-07-26T21:46:47.777Z,20.40
2018-07-26T21:49:16.200Z,20.40
2018-07-26T21:51:47.528Z,20.30
2018-07-26T21:54:17.069Z,20.20
2018-07-26T21:56:47.372Z,20.20
2018-07-26T21:59:15.799Z,20.10
2018-07-26T22:01:45.133Z,20.10
2018-07-26T22:04:13.582Z,19.90
2018-07-26T22:06:41.989Z,19.90
2018-07-26T22:09:11.393Z,19.80
2018-07-26T22:11:39.981Z,19.80
2018-07-26T22:14:08.861Z,19.80
2018-07-26T22:16:37.269Z,19.70
2018-07-26T22:19:05.704Z,19.60
2018-07-26T22:21:34.166Z,19.60
2018-07-26T22:24:02.577Z,19.50
2018-07-26T22:26:31.271Z,19.50
2018-07-26T22:28:59.716Z,19.40
2018-07-26T22:31:28.177Z,19.30
2018-07-26T22:33:56.728Z,19.30
2018-07-26T22:36:25.135Z,19.20
2018-07-26T22:38:53.562Z,19.20
2018-07-26T22:41:22.182Z,19.20
2018-07-26T22:43:50.617Z,19.20
2018-07-26T22:46:19.058Z,19.10
2018-07-26T22:48:47.524Z,19.10
2018-07-26T22:51:15.937Z,19.00
2018-07-26T22:53:44.370Z,19.00
2018-07-26T22:56:12.836Z,18.90
2018-07-26T22:58:41.268Z,18.90
2018-07-26T23:01:09.689Z,18.90
2018-07-26T23:03:38.117Z,18.90
2018-07-26T23:06:06.532Z,18.90
2018-07-26T23:08:34.940Z,18.70
2018-07-26T23:11:03.398Z,18.70
2018-07-26T23:13:31.804Z,18.70
2018-07-26T23:16:00.216Z,18.70
2018-07-26T23:18:28.678Z,18.70
2018-07-26T23:20:57.091Z,18.60
2018-07-26T23:23:25.526Z,18.50
2018-07-26T23:25:53.980Z,18.40
2018-07-26T23:28:22.393Z,18.50
2018-07-26T23:30:50.816Z,18.40
2018-07-26T23:33:19.262Z,18.40
2018-07-26T23:35:47.693Z,18.40
2018-07-26T23:38:16.118Z,18.20
2018-07-26T23:40:44.535Z,18.20
2018-07-26T23:43:12.962Z,18.10
2018-07-26T23:45:41.372Z,18.10
2018-07-26T23:48:09.907Z,18.10
2018-07-26T23:50:38.330Z,17.90
2018-07-26T23:53:06.748Z,17.90
2018-07-26T23:55:35.217Z,17.80
2018-07-26T23:58:03.629Z,17.80
